sensor_id;sensor_type;location;lat;lon;timestamp;P1;durP1;ratioP1;P2;durP2;ratioP2
2001;SDS011;1003;48.002;7.788;2024-01-06T00:00:21;3.57;;;2.53;;
2001;SDS011;1003;48.002;7.788;2024-01-06T00:02:48;3.97;;;2.50;;
2001;SDS011;1003;48.002;7.788;2024-01-06T00:05:15;6.40;;;2.60;;
2001;SDS011;1003;48.002;7.788;2024-01-06T00:07:43;3.73;;;2.47;;
2001;SDS011;1003;48.002;7.788;2024-01-06T00:10:10;5.23;;;2.60;;
2001;SDS011;1003;48.002;7.788;2024-01-06T00:12:37;4.40;;;2.50;;
2001;SDS011;1003;48.002;7.788;2024-01-06T00:15:04;3.57;;;2.50;;
2001;SDS011;1003;48.002;7.788;2024-01-06T00:17:33;3.20;;;2.30;;
2001;SDS011;1003;48.002;7.788;2024-01-06T00:19:59;2.77;;;2.20;;
2001;SDS011;1003;48.002;7.788;2024-01-06T00:22:27;6.47;;;2.30;;
2001;SDS011;1003;48.002;7.788;2024-01-06T00:24:55;6.17;;;2.40;;
2001;SDS011;1003;48.002;7.788;2024-01-06T00:27:22;3.23;;;2.30;;
2001;SDS011;1003;48.002;7.788;2024-01-06T00:29:49;3.73;;;2.40;;
2001;SDS011;1003;48.002;7.788;2024-01-06T00:32:16;4.27;;;2.20;;
2001;SDS011;1003;48.002;7.788;2024-01-06T00:34:43;3.93;;;2.10;;
2001;SDS011;1003;48.002;7.788;2024-01-06T00:37:10;4.27;;;2.20;;
2001;SDS011;1003;48.002;7.788;2024-01-06T00:39:37;4.53;;;2.30;;
2001;SDS011;1003;48.002;7.788;2024-01-06T00:42:05;5.40;;;2.03;;
2001;SDS011;1003;48.002;7.788;2024-01-06T00:44:33;4.17;;;2.20;;
2001;SDS011;1003;48.002;7.788;2024-01-06T00:47:02;2.70;;;2.00;;
2001;SDS011;1003;48.002;7.788;2024-01-06T00:49:29;3.37;;;2.30;;
2001;SDS011;1003;48.002;7.788;2024-01-06T00:51:56;3.33;;;2.23;;
2001;SDS011;1003;48.002;7.788;2024-01-06T00:54:23;2.87;;;2.27;;
2001;SDS011;1003;48.002;7.788;2024-01-06T00:56:50;3.47;;;2.23;;
2001;SDS011;1003;48.002;7.788;2024-01-06T00:59:18;3.57;;;2.27;;
2001;SDS011;1003;48.002;7.788;2024-01-06T01:01:45;3.93;;;2.40;;
2001;SDS011;1003;48.002;7.788;2024-01-06T01:04:12;5.40;;;2.20;;
2001;SDS011;1003;48.002;7.788;2024-01-06T01:06:39;5.17;;;2.33;;
2001;SDS011;1003;48.002;7.788;2024-01-06T01:09:05;3.87;;;2.27;;
2001;SDS011;1003;48.002;7.788;2024-01-06T01:11:34;2.87;;;2.10;;
2001;SDS011;1003;48.002;7.788;2024-01-06T01:14:01;4.53;;;2.00;;
2001;SDS011;1003;48.002;7.788;2024-01-06T01:16:29;3.43;;;2.20;;
2001;SDS011;1003;48.002;7.788;2024-01-06T01:18:57;2.30;;;1.90;;
2001;SDS011;1003;48.002;7.788;2024-01-06T01:21:24;3.10;;;1.90;;
2001;SDS011;1003;48.002;7.788;2024-01-06T01:23:51;3.00;;;2.13;;
2001;SDS011;1003;48.002;7.788;2024-01-06T01:26:18;3.37;;;2.30;;
2001;SDS011;1003;48.002;7.788;2024-01-06T01:28:45;3.57;;;1.87;;
2001;SDS011;1003;48.002;7.788;2024-01-06T01:31:12;4.13;;;2.27;;
2001;SDS011;1003;48.002;7.788;2024-01-06T01:33:40;2.90;;;1.97;;
2001;SDS011;1003;48.002;7.788;2024-01-06T01:36:07;4.20;;;2.23;;
2001;SDS011;1003;48.002;7.788;2024-01-06T01:38:34;2.57;;;2.00;;
2001;SDS011;1003;48.002;7.788;2024-01-06T01:41:01;2.80;;;1.93;;
2001;SDS011;1003;48.002;7.788;2024-01-06T01:43:28;3.50;;;2.30;;
2001;SDS011;1003;48.002;7.788;2024-01-06T01:45:55;3.00;;;1.70;;
2001;SDS011;1003;48.002;7.788;2024-01-06T01:48:23;2.20;;;1.90;;
2001;SDS011;1003;48.002;7.788;2024-01-06T01:50:53;3.40;;;1.50;;
2001;SDS011;1003;48.002;7.788;2024-01-06T01:53:20;2.73;;;1.90;;
2001;SDS011;1003;48.002;7.788;2024-01-06T01:55:51;2.37;;;1.57;;
2001;SDS011;1003;48.002;7.788;2024-01-06T01:58:20;3.60;;;1.90;;
2001;SDS011;1003;48.002;7.788;2024-01-06T02:00:47;1.70;;;1.47;;
2001;SDS011;1003;48.002;7.788;2024-01-06T02:03:14;1.77;;;1.50;;
2001;SDS011;1003;48.002;7.788;2024-01-06T02:05:42;3.43;;;1.70;;
2001;SDS011;1003;48.002;7.788;2024-01-06T02:08:10;4.57;;;1.87;;
2001;SDS011;1003;48.002;7.788;2024-01-06T02:10:37;3.57;;;1.93;;
2001;SDS011;1003;48.002;7.788;2024-01-06T02:13:08;4.43;;;2.00;;
2001;SDS011;1003;48.002;7.788;2024-01-06T02:15:36;2.87;;;1.77;;
2001;SDS011;1003;48.002;7.788;2024-01-06T02:18:03;3.53;;;1.93;;
2001;SDS011;1003;48.002;7.788;2024-01-06T02:20:31;2.80;;;1.87;;
2001;SDS011;1003;48.002;7.788;2024-01-06T02:23:00;1.70;;;1.60;;
2001;SDS011;1003;48.002;7.788;2024-01-06T02:25:27;2.30;;;1.57;;
2001;SDS011;1003;48.002;7.788;2024-01-06T02:27:54;1.90;;;1.50;;
2001;SDS011;1003;48.002;7.788;2024-01-06T02:30:21;1.50;;;1.40;;
2001;SDS011;1003;48.002;7.788;2024-01-06T02:32:48;2.30;;;1.50;;
2001;SDS011;1003;48.002;7.788;2024-01-06T02:35:15;2.60;;;1.50;;
2001;SDS011;1003;48.002;7.788;2024-01-06T02:37:42;2.57;;;1.60;;
2001;SDS011;1003;48.002;7.788;2024-01-06T02:40:11;2.77;;;1.50;;
2001;SDS011;1003;48.002;7.788;2024-01-06T02:42:39;2.97;;;1.83;;
2001;SDS011;1003;48.002;7.788;2024-01-06T02:45:07;3.13;;;1.40;;
2001;SDS011;1003;48.002;7.788;2024-01-06T02:47:35;1.93;;;1.40;;
2001;SDS011;1003;48.002;7.788;2024-01-06T02:50:02;3.00;;;1.70;;
2001;SDS011;1003;48.002;7.788;2024-01-06T02:52:30;2.57;;;1.50;;
2001;SDS011;1003;48.002;7.788;2024-01-06T02:54:57;2.10;;;1.43;;
2001;SDS011;1003;48.002;7.788;2024-01-06T02:57:27;3.60;;;1.80;;
2001;SDS011;1003;48.002;7.788;2024-01-06T02:59:54;2.87;;;1.80;;
2001;SDS011;1003;48.002;7.788;2024-01-06T03:02:21;2.97;;;1.83;;
2001;SDS011;1003;48.002;7.788;2024-01-06T03:04:48;3.10;;;1.80;;
2001;SDS011;1003;48.002;7.788;2024-01-06T03:07:15;2.77;;;1.73;;
2001;SDS011;1003;48.002;7.788;2024-01-06T03:09:42;2.87;;;2.00;;
2001;SDS011;1003;48.002;7.788;2024-01-06T03:12:09;3.47;;;2.10;;
2001;SDS011;1003;48.002;7.788;2024-01-06T03:14:37;2.90;;;1.80;;
2001;SDS011;1003;48.002;7.788;2024-01-06T03:17:04;2.70;;;1.73;;
2001;SDS011;1003;48.002;7.788;2024-01-06T03:19:31;3.63;;;2.10;;
2001;SDS011;1003;48.002;7.788;2024-01-06T03:21:58;5.43;;;2.93;;
2001;SDS011;1003;48.002;7.788;2024-01-06T03:24:26;3.80;;;2.10;;
2001;SDS011;1003;48.002;7.788;2024-01-06T03:26:53;3.43;;;2.17;;
2001;SDS011;1003;48.002;7.788;2024-01-06T03:29:20;2.63;;;2.10;;
2001;SDS011;1003;48.002;7.788;2024-01-06T03:31:48;2.97;;;2.10;;
2001;SDS011;1003;48.002;7.788;2024-01-06T03:34:15;2.87;;;2.10;;
2001;SDS011;1003;48.002;7.788;2024-01-06T03:36:42;3.63;;;2.30;;
2001;SDS011;1003;48.002;7.788;2024-01-06T03:39:09;5.17;;;2.17;;
2001;SDS011;1003;48.002;7.788;2024-01-06T03:41:37;4.27;;;2.53;;
2001;SDS011;1003;48.002;7.788;2024-01-06T03:44:04;4.00;;;2.47;;
2001;SDS011;1003;48.002;7.788;2024-01-06T03:46:32;3.57;;;2.10;;
2001;SDS011;1003;48.002;7.788;2024-01-06T03:49:01;3.73;;;2.20;;
2001;SDS011;1003;48.002;7.788;2024-01-06T03:51:28;2.50;;;1.90;;
2001;SDS011;1003;48.002;7.788;2024-01-06T03:53:55;3.83;;;2.07;;
2001;SDS011;1003;48.002;7.788;2024-01-06T03:56:22;4.10;;;2.03;;
2001;SDS011;1003;48.002;7.788;2024-01-06T03:58:49;3.70;;;2.17;;
2001;SDS011;1003;48.002;7.788;2024-01-06T04:01:16;3.33;;;1.87;;
2001;SDS011;1003;48.002;7.788;2024-01-06T04:03:43;3.83;;;2.00;;
2001;SDS011;1003;48.002;7.788;2024-01-06T04:06:11;2.83;;;2.00;;
2001;SDS011;1003;48.002;7.788;2024-01-06T04:08:39;3.17;;;2.27;;
2001;SDS011;1003;48.002;7.788;2024-01-06T04:11:06;2.57;;;1.57;;
2001;SDS011;1003;48.002;7.788;2024-01-06T04:13:33;2.17;;;1.80;;
2001;SDS011;1003;48.002;7.788;2024-01-06T04:16:00;2.10;;;1.90;;
2001;SDS011;1003;48.002;7.788;2024-01-06T04:18:27;2.70;;;2.07;;
2001;SDS011;1003;48.002;7.788;2024-01-06T04:20:54;4.30;;;2.47;;
2001;SDS011;1003;48.002;7.788;2024-01-06T04:23:22;3.13;;;2.23;;
2001;SDS011;1003;48.002;7.788;2024-01-06T04:25:49;5.47;;;2.30;;
2001;SDS011;1003;48.002;7.788;2024-01-06T04:28:16;3.80;;;2.30;;
2001;SDS011;1003;48.002;7.788;2024-01-06T04:30:43;3.93;;;2.50;;
2001;SDS011;1003;48.002;7.788;2024-01-06T04:33:10;3.77;;;2.50;;
2001;SDS011;1003;48.002;7.788;2024-01-06T04:35:37;3.70;;;2.43;;
2001;SDS011;1003;48.002;7.788;2024-01-06T04:38:04;3.60;;;2.60;;
2001;SDS011;1003;48.002;7.788;2024-01-06T04:40:32;5.87;;;2.90;;
2001;SDS011;1003;48.002;7.788;2024-01-06T04:42:59;4.13;;;2.60;;
2001;SDS011;1003;48.002;7.788;2024-01-06T04:45:26;3.80;;;2.67;;
2001;SDS011;1003;48.002;7.788;2024-01-06T04:47:53;4.03;;;2.80;;
2001;SDS011;1003;48.002;7.788;2024-01-06T04:50:20;3.13;;;2.70;;
2001;SDS011;1003;48.002;7.788;2024-01-06T04:52:47;4.40;;;3.17;;
2001;SDS011;1003;48.002;7.788;2024-01-06T04:55:14;4.90;;;2.67;;
2001;SDS011;1003;48.002;7.788;2024-01-06T04:57:42;4.90;;;2.77;;
2001;SDS011;1003;48.002;7.788;2024-01-06T05:00:10;4.80;;;2.60;;
2001;SDS011;1003;48.002;7.788;2024-01-06T05:02:38;3.83;;;2.53;;
2001;SDS011;1003;48.002;7.788;2024-01-06T05:05:06;3.23;;;2.50;;
2001;SDS011;1003;48.002;7.788;2024-01-06T05:07:33;4.53;;;2.60;;
2001;SDS011;1003;48.002;7.788;2024-01-06T05:10:00;5.00;;;2.90;;
2001;SDS011;1003;48.002;7.788;2024-01-06T05:12:27;3.87;;;2.77;;
2001;SDS011;1003;48.002;7.788;2024-01-06T05:14:55;3.90;;;2.60;;
2001;SDS011;1003;48.002;7.788;2024-01-06T05:17:22;5.27;;;2.80;;
2001;SDS011;1003;48.002;7.788;2024-01-06T05:19:49;4.77;;;2.43;;
2001;SDS011;1003;48.002;7.788;2024-01-06T05:22:16;3.93;;;2.90;;
2001;SDS011;1003;48.002;7.788;2024-01-06T05:24:43;4.03;;;2.70;;
2001;SDS011;1003;48.002;7.788;2024-01-06T05:27:11;4.20;;;2.73;;
2001;SDS011;1003;48.002;7.788;2024-01-06T05:29:38;3.30;;;2.43;;
2001;SDS011;1003;48.002;7.788;2024-01-06T05:32:06;5.47;;;2.90;;
2001;SDS011;1003;48.002;7.788;2024-01-06T05:34:33;3.93;;;2.80;;
2001;SDS011;1003;48.002;7.788;2024-01-06T05:37:00;3.00;;;2.40;;
2001;SDS011;1003;48.002;7.788;2024-01-06T05:39:27;7.03;;;2.67;;
2001;SDS011;1003;48.002;7.788;2024-01-06T05:41:54;3.37;;;2.50;;
2001;SDS011;1003;48.002;7.788;2024-01-06T05:44:21;3.90;;;2.70;;
2001;SDS011;1003;48.002;7.788;2024-01-06T05:46:48;4.67;;;2.90;;
2001;SDS011;1003;48.002;7.788;2024-01-06T05:49:17;2.67;;;2.40;;
2001;SDS011;1003;48.002;7.788;2024-01-06T05:51:44;4.00;;;2.50;;
2001;SDS011;1003;48.002;7.788;2024-01-06T05:54:11;3.30;;;2.30;;
2001;SDS011;1003;48.002;7.788;2024-01-06T05:56:38;2.87;;;2.43;;
2001;SDS011;1003;48.002;7.788;2024-01-06T05:59:05;3.67;;;2.70;;
2001;SDS011;1003;48.002;7.788;2024-01-06T06:01:32;3.00;;;2.17;;
2001;SDS011;1003;48.002;7.788;2024-01-06T06:03:59;4.47;;;2.70;;
2001;SDS011;1003;48.002;7.788;2024-01-06T06:06:27;4.00;;;2.30;;
2001;SDS011;1003;48.002;7.788;2024-01-06T06:08:54;3.23;;;2.43;;
2001;SDS011;1003;48.002;7.788;2024-01-06T06:11:21;3.33;;;2.20;;
2001;SDS011;1003;48.002;7.788;2024-01-06T06:13:48;3.37;;;2.40;;
2001;SDS011;1003;48.002;7.788;2024-01-06T06:16:15;3.97;;;2.20;;
2001;SDS011;1003;48.002;7.788;2024-01-06T06:18:42;3.37;;;2.00;;
2001;SDS011;1003;48.002;7.788;2024-01-06T06:21:09;3.17;;;2.17;;
2001;SDS011;1003;48.002;7.788;2024-01-06T06:23:37;2.60;;;2.13;;
2001;SDS011;1003;48.002;7.788;2024-01-06T06:26:05;3.70;;;2.20;;
2001;SDS011;1003;48.002;7.788;2024-01-06T06:28:33;3.13;;;2.30;;
2001;SDS011;1003;48.002;7.788;2024-01-06T06:31:00;3.43;;;2.30;;
2001;SDS011;1003;48.002;7.788;2024-01-06T06:33:28;3.43;;;2.27;;
2001;SDS011;1003;48.002;7.788;2024-01-06T06:35:55;2.93;;;2.17;;
2001;SDS011;1003;48.002;7.788;2024-01-06T06:38:22;3.17;;;2.10;;
2001;SDS011;1003;48.002;7.788;2024-01-06T06:40:50;4.97;;;2.60;;
2001;SDS011;1003;48.002;7.788;2024-01-06T06:43:17;5.37;;;2.30;;
2001;SDS011;1003;48.002;7.788;2024-01-06T06:45:44;4.20;;;2.43;;
2001;SDS011;1003;48.002;7.788;2024-01-06T06:48:11;4.67;;;2.10;;
2001;SDS011;1003;48.002;7.788;2024-01-06T06:50:38;3.03;;;2.20;;
2001;SDS011;1003;48.002;7.788;2024-01-06T06:53:06;5.40;;;2.50;;
2001;SDS011;1003;48.002;7.788;2024-01-06T06:55:33;7.10;;;3.30;;
2001;SDS011;1003;48.002;7.788;2024-01-06T06:58:01;4.03;;;2.80;;
2001;SDS011;1003;48.002;7.788;2024-01-06T07:00:28;3.57;;;2.10;;
2001;SDS011;1003;48.002;7.788;2024-01-06T07:02:55;4.20;;;2.63;;
2001;SDS011;1003;48.002;7.788;2024-01-06T07:05:22;5.77;;;2.43;;
2001;SDS011;1003;48.002;7.788;2024-01-06T07:07:49;3.23;;;2.00;;
2001;SDS011;1003;48.002;7.788;2024-01-06T07:10:16;2.40;;;2.20;;
2001;SDS011;1003;48.002;7.788;2024-01-06T07:12:44;6.37;;;4.00;;
2001;SDS011;1003;48.002;7.788;2024-01-06T07:15:12;10.93;;;7.30;;
2001;SDS011;1003;48.002;7.788;2024-01-06T07:17:39;8.80;;;7.33;;
2001;SDS011;1003;48.002;7.788;2024-01-06T07:20:06;4.83;;;3.03;;
2001;SDS011;1003;48.002;7.788;2024-01-06T07:22:34;5.57;;;2.17;;
2001;SDS011;1003;48.002;7.788;2024-01-06T07:25:02;3.57;;;2.07;;
2001;SDS011;1003;48.002;7.788;2024-01-06T07:27:30;2.90;;;2.00;;
2001;SDS011;1003;48.002;7.788;2024-01-06T07:29:57;5.83;;;2.90;;
2001;SDS011;1003;48.002;7.788;2024-01-06T07:32:25;3.83;;;2.50;;
2001;SDS011;1003;48.002;7.788;2024-01-06T07:34:52;1.97;;;1.80;;
2001;SDS011;1003;48.002;7.788;2024-01-06T07:37:19;4.03;;;2.20;;
2001;SDS011;1003;48.002;7.788;2024-01-06T07:39:46;2.90;;;2.10;;
2001;SDS011;1003;48.002;7.788;2024-01-06T07:42:14;3.00;;;2.10;;
2001;SDS011;1003;48.002;7.788;2024-01-06T07:44:40;3.07;;;2.00;;
2001;SDS011;1003;48.002;7.788;2024-01-06T07:47:07;3.37;;;2.00;;
2001;SDS011;1003;48.002;7.788;2024-01-06T07:49:36;2.87;;;1.97;;
2001;SDS011;1003;48.002;7.788;2024-01-06T07:52:03;2.20;;;1.80;;
2001;SDS011;1003;48.002;7.788;2024-01-06T07:54:30;4.03;;;1.83;;
2001;SDS011;1003;48.002;7.788;2024-01-06T07:56:57;4.47;;;1.97;;
2001;SDS011;1003;48.002;7.788;2024-01-06T07:59:24;2.57;;;1.73;;
2001;SDS011;1003;48.002;7.788;2024-01-06T08:01:51;3.60;;;2.00;;
2001;SDS011;1003;48.002;7.788;2024-01-06T08:04:18;5.03;;;2.30;;
2001;SDS011;1003;48.002;7.788;2024-01-06T08:06:46;2.30;;;1.80;;
2001;SDS011;1003;48.002;7.788;2024-01-06T08:09:13;4.07;;;2.60;;
2001;SDS011;1003;48.002;7.788;2024-01-06T08:11:40;5.13;;;2.50;;
2001;SDS011;1003;48.002;7.788;2024-01-06T08:14:07;3.30;;;2.20;;
2001;SDS011;1003;48.002;7.788;2024-01-06T08:16:35;4.77;;;3.00;;
2001;SDS011;1003;48.002;7.788;2024-01-06T08:19:02;4.03;;;3.17;;
2001;SDS011;1003;48.002;7.788;2024-01-06T08:21:29;2.90;;;2.33;;
2001;SDS011;1003;48.002;7.788;2024-01-06T08:23:58;4.17;;;2.20;;
2001;SDS011;1003;48.002;7.788;2024-01-06T08:26:25;4.10;;;2.40;;
2001;SDS011;1003;48.002;7.788;2024-01-06T08:28:52;2.37;;;2.17;;
2001;SDS011;1003;48.002;7.788;2024-01-06T08:31:19;3.43;;;2.07;;
2001;SDS011;1003;48.002;7.788;2024-01-06T08:33:48;3.53;;;2.23;;
2001;SDS011;1003;48.002;7.788;2024-01-06T08:36:14;3.43;;;2.50;;
2001;SDS011;1003;48.002;7.788;2024-01-06T08:38:42;3.30;;;2.40;;
2001;SDS011;1003;48.002;7.788;2024-01-06T08:41:10;4.37;;;2.30;;
2001;SDS011;1003;48.002;7.788;2024-01-06T08:43:37;2.10;;;1.90;;
2001;SDS011;1003;48.002;7.788;2024-01-06T08:46:04;3.40;;;1.93;;
2001;SDS011;1003;48.002;7.788;2024-01-06T08:48:31;2.93;;;1.80;;
2001;SDS011;1003;48.002;7.788;2024-01-06T08:50:58;3.97;;;2.30;;
2001;SDS011;1003;48.002;7.788;2024-01-06T08:53:25;3.13;;;2.10;;
2001;SDS011;1003;48.002;7.788;2024-01-06T08:55:52;2.20;;;2.00;;
2001;SDS011;1003;48.002;7.788;2024-01-06T08:58:20;3.47;;;2.23;;
2001;SDS011;1003;48.002;7.788;2024-01-06T09:00:47;5.53;;;2.33;;
2001;SDS011;1003;48.002;7.788;2024-01-06T09:03:14;3.67;;;2.30;;
2001;SDS011;1003;48.002;7.788;2024-01-06T09:05:41;2.80;;;2.20;;
2001;SDS011;1003;48.002;7.788;2024-01-06T09:08:08;4.40;;;2.50;;
2001;SDS011;1003;48.002;7.788;2024-01-06T09:10:35;3.37;;;2.20;;
2001;SDS011;1003;48.002;7.788;2024-01-06T09:13:02;3.30;;;2.10;;
2001;SDS011;1003;48.002;7.788;2024-01-06T09:15:31;4.10;;;2.33;;
2001;SDS011;1003;48.002;7.788;2024-01-06T09:17:58;3.07;;;2.20;;
2001;SDS011;1003;48.002;7.788;2024-01-06T09:20:25;4.60;;;2.23;;
2001;SDS011;1003;48.002;7.788;2024-01-06T09:22:52;2.20;;;2.00;;
2001;SDS011;1003;48.002;7.788;2024-01-06T09:25:19;3.67;;;2.27;;
2001;SDS011;1003;48.002;7.788;2024-01-06T09:27:48;3.47;;;2.20;;
2001;SDS011;1003;48.002;7.788;2024-01-06T09:30:16;3.93;;;2.10;;
2001;SDS011;1003;48.002;7.788;2024-01-06T09:32:44;3.13;;;2.40;;
2001;SDS011;1003;48.002;7.788;2024-01-06T09:35:11;2.77;;;2.20;;
2001;SDS011;1003;48.002;7.788;2024-01-06T09:37:39;3.47;;;2.20;;
2001;SDS011;1003;48.002;7.788;2024-01-06T09:40:07;2.70;;;2.17;;
2001;SDS011;1003;48.002;7.788;2024-01-06T09:42:39;4.40;;;2.33;;
2001;SDS011;1003;48.002;7.788;2024-01-06T09:45:06;2.53;;;2.07;;
2001;SDS011;1003;48.002;7.788;2024-01-06T09:47:34;4.33;;;2.30;;
2001;SDS011;1003;48.002;7.788;2024-01-06T09:50:03;3.00;;;2.30;;
2001;SDS011;1003;48.002;7.788;2024-01-06T09:52:37;4.00;;;2.20;;
2001;SDS011;1003;48.002;7.788;2024-01-06T09:55:09;3.63;;;1.87;;
2001;SDS011;1003;48.002;7.788;2024-01-06T09:57:38;3.23;;;2.27;;
2001;SDS011;1003;48.002;7.788;2024-01-06T10:00:06;4.13;;;2.47;;
2001;SDS011;1003;48.002;7.788;2024-01-06T10:02:34;3.77;;;2.10;;
2001;SDS011;1003;48.002;7.788;2024-01-06T10:05:03;3.10;;;2.17;;
2001;SDS011;1003;48.002;7.788;2024-01-06T10:07:30;2.57;;;1.97;;
2001;SDS011;1003;48.002;7.788;2024-01-06T10:09:57;3.20;;;1.90;;
2001;SDS011;1003;48.002;7.788;2024-01-06T10:12:24;2.90;;;1.80;;
2001;SDS011;1003;48.002;7.788;2024-01-06T10:14:53;2.70;;;1.70;;
2001;SDS011;1003;48.002;7.788;2024-01-06T10:17:20;2.90;;;1.77;;
2001;SDS011;1003;48.002;7.788;2024-01-06T10:19:48;2.47;;;1.70;;
2001;SDS011;1003;48.002;7.788;2024-01-06T10:22:16;2.90;;;1.80;;
2001;SDS011;1003;48.002;7.788;2024-01-06T10:24:43;2.90;;;1.60;;
2001;SDS011;1003;48.002;7.788;2024-01-06T10:27:10;2.57;;;1.60;;
2001;SDS011;1003;48.002;7.788;2024-01-06T10:29:38;2.50;;;1.50;;
2001;SDS011;1003;48.002;7.788;2024-01-06T10:32:05;2.13;;;1.60;;
2001;SDS011;1003;48.002;7.788;2024-01-06T10:34:32;1.83;;;1.67;;
2001;SDS011;1003;48.002;7.788;2024-01-06T10:37:02;2.30;;;1.73;;
2001;SDS011;1003;48.002;7.788;2024-01-06T10:39:32;2.90;;;1.63;;
2001;SDS011;1003;48.002;7.788;2024-01-06T10:41:59;11.13;;;4.83;;
2001;SDS011;1003;48.002;7.788;2024-01-06T10:46:37;4.77;;;2.30;;
2001;SDS011;1003;48.002;7.788;2024-01-06T10:49:05;3.73;;;2.10;;
2001;SDS011;1003;48.002;7.788;2024-01-06T10:51:33;4.57;;;2.60;;
2001;SDS011;1003;48.002;7.788;2024-01-06T10:54:03;6.03;;;3.70;;
2001;SDS011;1003;48.002;7.788;2024-01-06T10:56:32;3.90;;;2.00;;
2001;SDS011;1003;48.002;7.788;2024-01-06T10:59:04;2.10;;;1.77;;
2001;SDS011;1003;48.002;7.788;2024-01-06T11:01:32;14.17;;;8.70;;
2001;SDS011;1003;48.002;7.788;2024-01-06T11:04:02;11.10;;;6.77;;
2001;SDS011;1003;48.002;7.788;2024-01-06T11:06:31;4.80;;;2.40;;
2001;SDS011;1003;48.002;7.788;2024-01-06T11:09:01;3.00;;;1.60;;
2001;SDS011;1003;48.002;7.788;2024-01-06T11:11:35;2.77;;;1.50;;
2001;SDS011;1003;48.002;7.788;2024-01-06T11:14:16;2.77;;;1.80;;
2001;SDS011;1003;48.002;7.788;2024-01-06T11:16:45;2.53;;;1.77;;
2001;SDS011;1003;48.002;7.788;2024-01-06T11:22:18;2.03;;;1.60;;
2001;SDS011;1003;48.002;7.788;2024-01-06T11:24:52;2.93;;;1.67;;
2001;SDS011;1003;48.002;7.788;2024-01-06T11:27:21;2.43;;;1.37;;
2001;SDS011;1003;48.002;7.788;2024-01-06T11:29:53;3.37;;;1.80;;
2001;SDS011;1003;48.002;7.788;2024-01-06T11:32:25;3.33;;;1.83;;
2001;SDS011;1003;48.002;7.788;2024-01-06T11:34:56;1.47;;;1.23;;
2001;SDS011;1003;48.002;7.788;2024-01-06T11:37:36;2.03;;;1.63;;
2001;SDS011;1003;48.002;7.788;2024-01-06T11:40:24;1.17;;;1.07;;
2001;SDS011;1003;48.002;7.788;2024-01-06T11:42:58;1.07;;;1.00;;
2001;SDS011;1003;48.002;7.788;2024-01-06T11:45:31;2.50;;;1.23;;
2001;SDS011;1003;48.002;7.788;2024-01-06T11:47:59;1.97;;;1.33;;
2001;SDS011;1003;48.002;7.788;2024-01-06T11:50:30;2.90;;;1.30;;
2001;SDS011;1003;48.002;7.788;2024-01-06T11:52:58;2.40;;;1.40;;
2001;SDS011;1003;48.002;7.788;2024-01-06T11:55:26;1.57;;;1.43;;
2001;SDS011;1003;48.002;7.788;2024-01-06T11:57:54;2.67;;;1.47;;
2001;SDS011;1003;48.002;7.788;2024-01-06T12:00:22;2.00;;;1.50;;
2001;SDS011;1003;48.002;7.788;2024-01-06T12:02:49;2.23;;;1.60;;
2001;SDS011;1003;48.002;7.788;2024-01-06T12:05:22;2.07;;;1.70;;
2001;SDS011;1003;48.002;7.788;2024-01-06T12:07:54;2.80;;;2.00;;
2001;SDS011;1003;48.002;7.788;2024-01-06T12:10:24;2.53;;;1.70;;
2001;SDS011;1003;48.002;7.788;2024-01-06T12:12:57;3.80;;;1.57;;
2001;SDS011;1003;48.002;7.788;2024-01-06T12:15:25;21.57;;;5.17;;
2001;SDS011;1003;48.002;7.788;2024-01-06T12:17:53;21.50;;;6.77;;
2001;SDS011;1003;48.002;7.788;2024-01-06T12:20:21;10.93;;;3.70;;
2001;SDS011;1003;48.002;7.788;2024-01-06T12:22:49;6.83;;;2.50;;
2001;SDS011;1003;48.002;7.788;2024-01-06T12:25:20;4.23;;;2.20;;
2001;SDS011;1003;48.002;7.788;2024-01-06T12:27:47;6.23;;;2.57;;
2001;SDS011;1003;48.002;7.788;2024-01-06T12:30:16;4.13;;;2.37;;
2001;SDS011;1003;48.002;7.788;2024-01-06T12:32:45;4.63;;;2.10;;
2001;SDS011;1003;48.002;7.788;2024-01-06T12:35:15;4.03;;;2.10;;
2001;SDS011;1003;48.002;7.788;2024-01-06T12:37:42;2.50;;;1.70;;
2001;SDS011;1003;48.002;7.788;2024-01-06T12:40:11;3.50;;;1.70;;
2001;SDS011;1003;48.002;7.788;2024-01-06T12:42:43;2.10;;;1.60;;
2001;SDS011;1003;48.002;7.788;2024-01-06T12:45:10;3.10;;;2.07;;
2001;SDS011;1003;48.002;7.788;2024-01-06T12:47:38;3.97;;;2.53;;
2001;SDS011;1003;48.002;7.788;2024-01-06T12:50:06;3.63;;;2.50;;
2001;SDS011;1003;48.002;7.788;2024-01-06T12:52:34;2.20;;;1.90;;
2001;SDS011;1003;48.002;7.788;2024-01-06T12:55:03;2.03;;;1.73;;
2001;SDS011;1003;48.002;7.788;2024-01-06T12:57:31;3.40;;;2.20;;
2001;SDS011;1003;48.002;7.788;2024-01-06T13:00:00;3.87;;;1.83;;
2001;SDS011;1003;48.002;7.788;2024-01-06T13:02:27;2.60;;;2.00;;
2001;SDS011;1003;48.002;7.788;2024-01-06T13:04:54;2.03;;;1.83;;
2001;SDS011;1003;48.002;7.788;2024-01-06T13:07:21;3.53;;;2.53;;
2001;SDS011;1003;48.002;7.788;2024-01-06T13:09:48;6.20;;;3.93;;
2001;SDS011;1003;48.002;7.788;2024-01-06T13:12:16;2.70;;;2.27;;
2001;SDS011;1003;48.002;7.788;2024-01-06T13:14:43;6.03;;;3.73;;
2001;SDS011;1003;48.002;7.788;2024-01-06T13:17:13;4.13;;;2.97;;
2001;SDS011;1003;48.002;7.788;2024-01-06T13:19:40;3.17;;;2.50;;
2001;SDS011;1003;48.002;7.788;2024-01-06T13:22:07;5.97;;;3.70;;
2001;SDS011;1003;48.002;7.788;2024-01-06T13:24:34;3.27;;;2.07;;
2001;SDS011;1003;48.002;7.788;2024-01-06T13:27:01;1.60;;;1.50;;
2001;SDS011;1003;48.002;7.788;2024-01-06T13:29:29;2.20;;;1.80;;
2001;SDS011;1003;48.002;7.788;2024-01-06T13:31:56;1.50;;;1.40;;
2001;SDS011;1003;48.002;7.788;2024-01-06T13:34:25;2.67;;;1.67;;
2001;SDS011;1003;48.002;7.788;2024-01-06T13:36:54;2.03;;;1.50;;
2001;SDS011;1003;48.002;7.788;2024-01-06T13:39:22;1.13;;;1.10;;
2001;SDS011;1003;48.002;7.788;2024-01-06T13:41:49;1.33;;;1.10;;
2001;SDS011;1003;48.002;7.788;2024-01-06T13:44:16;1.33;;;1.10;;
2001;SDS011;1003;48.002;7.788;2024-01-06T13:46:43;1.17;;;1.03;;
2001;SDS011;1003;48.002;7.788;2024-01-06T13:49:11;1.50;;;1.40;;
2001;SDS011;1003;48.002;7.788;2024-01-06T13:51:39;1.13;;;1.07;;
2001;SDS011;1003;48.002;7.788;2024-01-06T13:54:06;1.43;;;1.20;;
2001;SDS011;1003;48.002;7.788;2024-01-06T13:56:34;1.13;;;0.97;;
2001;SDS011;1003;48.002;7.788;2024-01-06T13:59:01;1.00;;;1.00;;
2001;SDS011;1003;48.002;7.788;2024-01-06T14:01:29;0.97;;;0.90;;
2001;SDS011;1003;48.002;7.788;2024-01-06T14:03:56;1.10;;;0.90;;
2001;SDS011;1003;48.002;7.788;2024-01-06T14:06:23;0.90;;;0.90;;
2001;SDS011;1003;48.002;7.788;2024-01-06T14:08:56;1.10;;;0.80;;
2001;SDS011;1003;48.002;7.788;2024-01-06T14:11:22;0.70;;;0.70;;
2001;SDS011;1003;48.002;7.788;2024-01-06T14:13:50;0.80;;;0.80;;
2001;SDS011;1003;48.002;7.788;2024-01-06T14:16:18;1.57;;;1.03;;
2001;SDS011;1003;48.002;7.788;2024-01-06T14:18:45;1.03;;;0.90;;
2001;SDS011;1003;48.002;7.788;2024-01-06T14:21:12;1.20;;;1.00;;
2001;SDS011;1003;48.002;7.788;2024-01-06T14:23:40;0.90;;;0.90;;
2001;SDS011;1003;48.002;7.788;2024-01-06T14:26:08;0.93;;;0.93;;
2001;SDS011;1003;48.002;7.788;2024-01-06T14:28:36;1.43;;;1.20;;
2001;SDS011;1003;48.002;7.788;2024-01-06T14:31:03;1.17;;;1.07;;
2001;SDS011;1003;48.002;7.788;2024-01-06T14:33:30;0.80;;;0.80;;
2001;SDS011;1003;48.002;7.788;2024-01-06T14:35:57;1.73;;;1.10;;
2001;SDS011;1003;48.002;7.788;2024-01-06T14:38:24;3.17;;;2.60;;
2001;SDS011;1003;48.002;7.788;2024-01-06T14:40:51;1.93;;;1.00;;
2001;SDS011;1003;48.002;7.788;2024-01-06T14:43:20;1.23;;;1.13;;
2001;SDS011;1003;48.002;7.788;2024-01-06T14:45:47;1.10;;;1.00;;
2001;SDS011;1003;48.002;7.788;2024-01-06T14:48:14;1.63;;;1.10;;
2001;SDS011;1003;48.002;7.788;2024-01-06T14:50:41;2.00;;;1.17;;
2001;SDS011;1003;48.002;7.788;2024-01-06T14:53:08;1.30;;;1.10;;
2001;SDS011;1003;48.002;7.788;2024-01-06T14:55:36;1.00;;;0.90;;
2001;SDS011;1003;48.002;7.788;2024-01-06T14:58:03;2.87;;;2.10;;
2001;SDS011;1003;48.002;7.788;2024-01-06T15:00:31;1.30;;;1.10;;
2001;SDS011;1003;48.002;7.788;2024-01-06T15:02:58;1.30;;;1.20;;
2001;SDS011;1003;48.002;7.788;2024-01-06T15:05:25;1.20;;;1.10;;
2001;SDS011;1003;48.002;7.788;2024-01-06T15:07:54;1.40;;;1.20;;
2001;SDS011;1003;48.002;7.788;2024-01-06T15:10:22;1.13;;;1.10;;
2001;SDS011;1003;48.002;7.788;2024-01-06T15:12:48;1.30;;;0.90;;
2001;SDS011;1003;48.002;7.788;2024-01-06T15:15:15;1.30;;;1.20;;
2001;SDS011;1003;48.002;7.788;2024-01-06T15:17:44;2.33;;;2.13;;
2001;SDS011;1003;48.002;7.788;2024-01-06T15:20:11;1.90;;;1.63;;
2001;SDS011;1003;48.002;7.788;2024-01-06T15:22:38;1.30;;;1.20;;